Time;durP1;ratioP1;P1;durP2;ratioP2;P2;SDS_P1;SDS_P2;PMS_P1;PMS_P2;Temp;Humidity;BMP_temperature;BMP_pressure;BME280_temperature;BME280_humidity;BME280_pressure;Samples;Min_cycle;Max_cycle;Signal;HPM_P1;HPM_P2
2021/05/23 00:02:12;;;;;;;;;;;11.30;59.80;;;;;;5033451;28;19967;-74
2021/05/23 00:04:38;;;;;;;;;;;11.30;60.10;;;;;;5032958;28;20389;-74
2021/05/23 00:07:04;;;;;;;;;;;11.40;59.40;;;;;;5034258;28;19992;-74
2021/05/23 00:09:29;;;;;;;;;;;11.40;57.90;;;;;;5015573;28;19913;-76
2021/05/23 00:11:55;;;;;;;;;;;11.30;58.90;;;;;;5033350;28;19952;-73
2021/05/23 00:14:21;;;;;;;;;;;11.30;56.50;;;;;;5032433;28;19913;-74
2021/05/23 00:16:46;;;;;;;;;;;11.30;57.10;;;;;;5032667;28;19905;-74
2021/05/23 00:19:12;;;;;;;;;;;11.30;57.60;;;;;;5032411;28;20229;-74
2021/05/23 00:21:38;;;;;;;;;;;11.40;55.20;;;;;;5032422;28;19916;-73
2021/05/23 00:24:04;;;;;;;;;;;11.40;53.60;;;;;;5032126;28;20281;-75
2021/05/23 00:26:29;;;;;;;;;;;11.40;53.20;;;;;;5033084;28;19916;-73
2021/05/23 00:28:55;;;;;;;;;;;11.40;54.00;;;;;;5032333;28;19912;-73
2021/05/23 00:31:20;;;;;;;;;;;11.20;55.90;;;;;;5032644;28;19913;-74
2021/05/23 00:33:46;;;;;;;;;;;11.20;54.20;;;;;;5032249;28;19940;-74
2021/05/23 00:36:34;;;;;;;;;;;11.20;55.30;;;;;;5032368;28;20143;-75
2021/05/23 00:39:00;;;;;;;;;;;11.20;55.80;;;;;;5015269;28;19905;-74
2021/05/23 00:41:25;;;;;;;;;;;11.20;54.90;;;;;;5033081;28;19905;-74
2021/05/23 00:43:51;;;;;;;;;;;11.10;55.90;;;;;;5050248;23;19927;-74
2021/05/23 00:46:16;;;;;;;;;;;11.10;56.50;;;;;;5045531;28;19916;-76
2021/05/23 00:48:42;;;;;;;;;;;11.10;56.90;;;;;;5043740;28;20366;-74
2021/05/23 00:51:08;;;;;;;;;;;11.00;56.50;;;;;;5043911;28;19905;-74
2021/05/23 00:53:33;;;;;;;;;;;11.00;56.60;;;;;;5041237;28;19905;-76
2021/05/23 00:55:59;;;;;;;;;;;11.10;55.70;;;;;;5033631;28;19905;-75
2021/05/23 00:58:24;;;;;;;;;;;11.10;56.50;;;;;;5034214;28;20280;-75
2021/05/23 01:00:53;;;;;;;;;;;11.10;57.50;;;;;;5034137;28;19915;-76
2021/05/23 01:03:27;;;;;;;;;;;11.20;57.90;;;;;;5033807;28;19929;-75
2021/05/23 01:05:53;;;;;;;;;;;11.20;55.30;;;;;;5033284;28;19916;-74
2021/05/23 01:08:19;;;;;;;;;;;11.10;56.20;;;;;;5033570;28;20361;-75
2021/05/23 01:11:04;;;;;;;;;;;11.10;55.50;;;;;;5033468;28;19909;-74
2021/05/23 01:13:49;;;;;;;;;;;11.20;55.30;;;;;;5035444;28;20008;-75
2021/05/23 01:16:18;;;;;;;;;;;11.20;56.10;;;;;;5035602;28;19969;-74
2021/05/23 01:18:49;;;;;;;;;;;11.20;55.10;;;;;;5036023;28;19911;-76
2021/05/23 01:21:16;;;;;;;;;;;11.20;56.10;;;;;;5036081;28;19904;-75
2021/05/23 01:23:46;;;;;;;;;;;11.20;56.30;;;;;;5035545;28;19906;-76
2021/05/23 01:26:13;;;;;;;;;;;11.20;56.60;;;;;;5035658;28;19909;-76
2021/05/23 01:28:49;;;;;;;;;;;11.20;56.10;;;;;;5035984;28;20277;-76
2021/05/23 01:31:19;;;;;;;;;;;11.20;56.30;;;;;;5035707;28;20287;-76
2021/05/23 01:33:52;;;;;;;;;;;11.20;55.40;;;;;;5017798;28;20008;-75
2021/05/23 01:36:17;;;;;;;;;;;11.30;54.10;;;;;;5017661;28;19909;-76
2021/05/23 01:38:43;;;;;;;;;;;11.30;54.20;;;;;;5035506;28;19950;-75
2021/05/23 01:41:09;;;;;;;;;;;11.20;54.90;;;;;;5035670;28;19992;-74
2021/05/23 01:43:35;;;;;;;;;;;11.10;56.00;;;;;;5035399;28;20097;-76
2021/05/23 01:46:01;;;;;;;;;;;11.20;55.70;;;;;;5017527;28;19909;-74
2021/05/23 01:48:27;;;;;;;;;;;11.20;56.30;;;;;;5035411;28;19943;-75
2021/05/23 01:50:53;;;;;;;;;;;11.20;56.00;;;;;;5035133;28;19940;-75
2021/05/23 01:53:18;;;;;;;;;;;11.20;55.70;;;;;;5035170;28;19912;-76
2021/05/23 01:55:44;;;;;;;;;;;11.20;56.40;;;;;;5035390;28;19912;-76
2021/05/23 01:58:09;;;;;;;;;;;11.20;55.70;;;;;;5036681;28;19905;-75
2021/05/23 02:00:36;;;;;;;;;;;11.20;56.10;;;;;;5038098;28;20003;-75
2021/05/23 02:03:06;;;;;;;;;;;11.30;54.60;;;;;;5035761;28;19912;-75
2021/05/23 02:05:32;;;;;;;;;;;11.30;54.70;;;;;;5035986;28;19986;-76
2021/05/23 02:07:58;;;;;;;;;;;11.10;55.90;;;;;;5035729;28;19909;-75
2021/05/23 02:10:23;;;;;;;;;;;11.10;56.90;;;;;;5018001;28;19905;-74
2021/05/23 02:12:49;;;;;;;;;;;11.10;55.60;;;;;;5018297;28;19905;-75
2021/05/23 02:15:16;;;;;;;;;;;11.10;56.60;;;;;;5035489;28;19913;-76
2021/05/23 02:17:42;;;;;;;;;;;11.10;56.30;;;;;;5034819;28;20274;-76
2021/05/23 02:20:09;;;;;;;;;;;11.10;55.80;;;;;;5034920;28;19912;-75
2021/05/23 02:22:45;;;;;;;;;;;11.10;55.70;;;;;;5036573;28;19905;-76
2021/05/23 02:25:11;;;;;;;;;;;11.10;56.00;;;;;;5045551;28;19905;-75
2021/05/23 02:27:38;;;;;;;;;;;11.20;55.60;;;;;;5045814;28;20065;-76
2021/05/23 02:30:08;;;;;;;;;;;11.10;57.10;;;;;;5037343;28;19912;-75
2021/05/23 02:32:33;;;;;;;;;;;11.10;56.40;;;;;;5035101;28;19911;-76
2021/05/23 02:34:59;;;;;;;;;;;11.10;56.70;;;;;;5034446;28;19905;-75
2021/05/23 02:37:24;;;;;;;;;;;11.00;58.30;;;;;;5034777;28;19932;-74
2021/05/23 02:39:50;;;;;;;;;;;11.00;59.50;;;;;;5034691;28;20417;-76
2021/05/23 02:42:15;;;;;;;;;;;10.90;61.10;;;;;;5034597;28;20423;-76
2021/05/23 02:44:41;;;;;;;;;;;10.90;62.60;;;;;;5034292;28;19995;-75
2021/05/23 02:47:06;;;;;;;;;;;10.80;63.80;;;;;;5034255;28;20380;-76
2021/05/23 02:49:32;;;;;;;;;;;10.80;64.00;;;;;;5016645;28;19936;-76
2021/05/23 02:51:57;;;;;;;;;;;10.70;65.10;;;;;;5034189;28;19916;-75
2021/05/23 02:54:23;;;;;;;;;;;10.80;65.20;;;;;;5034017;28;20384;-76
2021/05/23 02:56:48;;;;;;;;;;;10.80;65.40;;;;;;5034232;28;20428;-75
2021/05/23 02:59:14;;;;;;;;;;;10.80;65.10;;;;;;5033822;28;19905;-75
2021/05/23 03:01:39;;;;;;;;;;;10.70;66.00;;;;;;5034018;28;19905;-76
2021/05/23 03:04:04;;;;;;;;;;;10.70;67.00;;;;;;5033378;28;20234;-75
2021/05/23 03:06:30;;;;;;;;;;;10.70;67.00;;;;;;5033752;28;20008;-76
2021/05/23 03:08:55;;;;;;;;;;;10.70;66.70;;;;;;5033932;28;20350;-75
2021/05/23 03:11:21;;;;;;;;;;;10.70;67.20;;;;;;5034068;28;19905;-76
2021/05/23 03:13:46;;;;;;;;;;;10.70;67.90;;;;;;5034361;28;19947;-75
2021/05/23 03:16:12;;;;;;;;;;;10.70;68.20;;;;;;5019760;28;19912;-77
2021/05/23 03:18:37;;;;;;;;;;;10.70;67.50;;;;;;5021034;28;20004;-76
2021/05/23 03:21:03;;;;;;;;;;;10.60;68.20;;;;;;5033719;28;19991;-74
2021/05/23 03:23:28;;;;;;;;;;;10.60;68.70;;;;;;5033599;28;19913;-74
2021/05/23 03:25:54;;;;;;;;;;;10.60;68.10;;;;;;5034142;28;20378;-76
2021/05/23 03:28:21;;;;;;;;;;;10.60;67.70;;;;;;5033898;28;19912;-76
2021/05/23 03:30:46;;;;;;;;;;;10.60;68.50;;;;;;5037153;28;19940;-76
2021/05/23 03:33:12;;;;;;;;;;;10.70;68.80;;;;;;5037829;28;19916;-75
2021/05/23 03:35:38;;;;;;;;;;;10.70;68.60;;;;;;5036082;28;19912;-75
2021/05/23 03:38:04;;;;;;;;;;;10.60;69.00;;;;;;5036213;28;20185;-75
2021/05/23 03:40:31;;;;;;;;;;;10.70;69.50;;;;;;5036029;28;19937;-74
2021/05/23 03:42:57;;;;;;;;;;;10.80;69.60;;;;;;5033093;28;20362;-76
2021/05/23 03:45:23;;;;;;;;;;;10.70;69.30;;;;;;5033646;28;19958;-75
2021/05/23 03:47:48;;;;;;;;;;;10.70;70.60;;;;;;5034263;28;20309;-76
2021/05/23 03:50:17;;;;;;;;;;;10.80;69.70;;;;;;5033794;28;19905;-75
2021/05/23 03:52:43;;;;;;;;;;;10.90;69.10;;;;;;5033578;28;19912;-76
2021/05/23 03:55:08;;;;;;;;;;;10.90;69.10;;;;;;5033451;28;19905;-74
2021/05/23 03:57:34;;;;;;;;;;;10.90;69.90;;;;;;5016433;28;19959;-74
2021/05/23 04:00:00;;;;;;;;;;;10.90;70.30;;;;;;5033751;28;19951;-74
2021/05/23 04:02:25;;;;;;;;;;;11.00;70.30;;;;;;5016754;28;20353;-74
2021/05/23 04:04:57;;;;;;;;;;;11.00;68.90;;;;;;5017445;28;19916;-75
2021/05/23 04:07:24;;;;;;;;;;;11.00;69.30;;;;;;5035977;28;19959;-75
2021/05/23 04:09:51;;;;;;;;;;;10.90;69.30;;;;;;5034479;28;19909;-75
2021/05/23 04:12:24;;;;;;;;;;;10.90;69.70;;;;;;5035505;28;20396;-76
2021/05/23 04:14:50;;;;;;;;;;;11.00;68.80;;;;;;5035061;28;20426;-76
2021/05/23 04:17:16;;;;;;;;;;;11.00;68.70;;;;;;5034635;28;19948;-76
2021/05/23 04:19:41;;;;;;;;;;;11.00;69.10;;;;;;5034436;28;20366;-75
2021/05/23 04:22:07;;;;;;;;;;;11.00;69.40;;;;;;5033024;28;19905;-75
2021/05/23 04:24:36;;;;;;;;;;;11.10;69.60;;;;;;5032629;28;20404;-74
2021/05/23 04:27:02;;;;;;;;;;;11.10;69.80;;;;;;5033734;28;20292;-77
2021/05/23 04:29:27;;;;;;;;;;;11.10;69.60;;;;;;5035099;28;19909;-76
2021/05/23 04:31:53;;;;;;;;;;;11.10;68.70;;;;;;5034728;28;20381;-74
2021/05/23 04:34:18;;;;;;;;;;;11.20;68.10;;;;;;5032406;28;19912;-74
2021/05/23 04:36:44;;;;;;;;;;;11.30;67.20;;;;;;5036215;28;19905;-76
2021/05/23 04:39:09;;;;;;;;;;;11.30;67.40;;;;;;5036753;28;19904;-75
2021/05/23 04:41:35;;;;;;;;;;;11.20;66.90;;;;;;5020043;28;19905;-76
2021/05/23 04:44:00;;;;;;;;;;;11.30;67.00;;;;;;5032381;28;20281;-76
2021/05/23 04:46:26;;;;;;;;;;;11.20;67.70;;;;;;5016604;28;19909;-76
2021/05/23 04:48:51;;;;;;;;;;;11.20;68.20;;;;;;5022944;28;20002;-75
2021/05/23 04:51:17;;;;;;;;;;;11.20;67.30;;;;;;5040347;28;20002;-76
2021/05/23 04:53:42;;;;;;;;;;;11.20;67.30;;;;;;5041093;28;20258;-75
2021/05/23 04:56:08;;;;;;;;;;;11.30;66.50;;;;;;5043593;28;19905;-76
2021/05/23 04:58:33;;;;;;;;;;;11.30;66.40;;;;;;5042140;28;20344;-76
2021/05/23 05:00:59;;;;;;;;;;;11.30;66.50;;;;;;5045358;28;19909;-75
2021/05/23 05:03:24;;;;;;;;;;;11.30;67.00;;;;;;5042396;28;20303;-76
2021/05/23 05:05:50;;;;;;;;;;;11.30;67.90;;;;;;5043150;28;19931;-76
2021/05/23 05:08:15;;;;;;;;;;;11.30;68.60;;;;;;5035782;28;20333;-76
2021/05/23 05:10:41;;;;;;;;;;;11.20;68.80;;;;;;5036178;28;19912;-75
2021/05/23 05:13:06;;;;;;;;;;;11.20;70.20;;;;;;5017706;28;19905;-75
2021/05/23 05:15:31;;;;;;;;;;;11.20;69.50;;;;;;5036172;28;20023;-74
2021/05/23 05:17:57;;;;;;;;;;;11.20;69.80;;;;;;5035910;28;19909;-77
2021/05/23 05:20:24;;;;;;;;;;;11.20;70.30;;;;;;5035792;28;20000;-76
2021/05/23 05:22:50;;;;;;;;;;;11.20;69.50;;;;;;5035268;28;19909;-76
2021/05/23 05:25:16;;;;;;;;;;;11.20;69.20;;;;;;5019838;28;19912;-76
2021/05/23 05:27:41;;;;;;;;;;;11.30;67.70;;;;;;5044826;28;19909;-75
2021/05/23 05:30:07;;;;;;;;;;;11.30;66.60;;;;;;5037133;28;20273;-76
2021/05/23 05:32:33;;;;;;;;;;;11.30;64.90;;;;;;5018306;28;19955;-75
2021/05/23 05:34:58;;;;;;;;;;;11.30;63.40;;;;;;5037541;28;20374;-76
2021/05/23 05:37:24;;;;;;;;;;;11.30;64.50;;;;;;5037877;28;19905;-75
2021/05/23 05:39:50;;;;;;;;;;;11.40;63.20;;;;;;5037146;28;19991;-75
2021/05/23 05:42:16;;;;;;;;;;;11.40;60.90;;;;;;5041262;28;19931;-76
2021/05/23 05:44:41;;;;;;;;;;;11.50;60.10;;;;;;5045400;28;19924;-75
2021/05/23 05:47:07;;;;;;;;;;;11.40;56.20;;;;;;5037968;28;19913;-76
2021/05/23 05:49:32;;;;;;;;;;;11.50;57.50;;;;;;5039668;28;19905;-74
2021/05/23 05:51:58;;;;;;;;;;;11.50;56.50;;;;;;5041475;28;19905;-76
2021/05/23 05:54:23;;;;;;;;;;;11.60;54.40;;;;;;5042196;28;19905;-76
2021/05/23 05:56:49;;;;;;;;;;;11.60;53.90;;;;;;5043212;28;19909;-76
2021/05/23 05:59:14;;;;;;;;;;;11.60;53.90;;;;;;5043921;28;19932;-76
2021/05/23 06:01:41;;;;;;;;;;;11.60;52.90;;;;;;5025408;28;19947;-76
2021/05/23 06:04:07;;;;;;;;;;;11.60;53.80;;;;;;5021703;28;19952;-75
2021/05/23 06:06:32;;;;;;;;;;;11.60;53.90;;;;;;5022765;28;19924;-75
2021/05/23 06:08:57;;;;;;;;;;;11.60;53.50;;;;;;5039809;28;19920;-75
2021/05/23 06:11:23;;;;;;;;;;;11.60;53.10;;;;;;5035305;28;19905;-75
2021/05/23 06:13:48;;;;;;;;;;;11.60;53.70;;;;;;5034631;28;20046;-75
2021/05/23 06:16:14;;;;;;;;;;;11.60;54.30;;;;;;5034475;28;19909;-74
2021/05/23 06:18:41;;;;;;;;;;;11.70;52.70;;;;;;5034632;28;20047;-76
2021/05/23 06:21:06;;;;;;;;;;;11.70;53.20;;;;;;5034315;28;20345;-74
2021/05/23 06:23:32;;;;;;;;;;;11.70;52.40;;;;;;5034373;28;20000;-76
2021/05/23 06:25:57;;;;;;;;;;;11.60;53.20;;;;;;5034692;28;19905;-75
2021/05/23 06:28:23;;;;;;;;;;;11.60;53.80;;;;;;5034849;28;19959;-76
2021/05/23 06:30:48;;;;;;;;;;;11.70;54.10;;;;;;5016939;28;19905;-75
2021/05/23 06:33:14;;;;;;;;;;;11.70;53.70;;;;;;5034563;28;19905;-75
2021/05/23 06:35:39;;;;;;;;;;;11.70;53.80;;;;;;5034744;28;20386;-75
2021/05/23 06:38:05;;;;;;;;;;;11.70;53.30;;;;;;5034499;28;19916;-76
2021/05/23 06:40:30;;;;;;;;;;;11.80;52.70;;;;;;5034555;28;20421;-74
2021/05/23 06:42:56;;;;;;;;;;;11.90;52.20;;;;;;5016554;28;19905;-75
2021/05/23 06:45:21;;;;;;;;;;;11.90;50.00;;;;;;5046401;28;19905;-77
2021/05/23 06:47:47;;;;;;;;;;;12.00;49.30;;;;;;5049533;28;19966;-75
2021/05/23 06:50:12;;;;;;;;;;;12.10;48.70;;;;;;5031827;28;19972;-77
2021/05/23 06:52:38;;;;;;;;;;;12.30;47.80;;;;;;5044274;28;19947;-77
2021/05/23 06:55:04;;;;;;;;;;;12.50;46.10;;;;;;5042390;28;19905;-77
2021/05/23 06:57:31;;;;;;;;;;;12.60;45.50;;;;;;5031736;28;19939;-76
2021/05/23 06:59:56;;;;;;;;;;;12.70;45.10;;;;;;5045009;28;19905;-77
2021/05/23 07:02:22;;;;;;;;;;;12.90;43.10;;;;;;5046324;28;19905;-77
2021/05/23 07:04:47;;;;;;;;;;;13.10;40.90;;;;;;5042560;28;19913;-76
2021/05/23 07:07:12;;;;;;;;;;;12.90;40.90;;;;;;5040561;28;19927;-78
2021/05/23 07:09:39;;;;;;;;;;;12.70;41.00;;;;;;5026207;28;19905;-76
2021/05/23 07:12:05;;;;;;;;;;;12.70;43.50;;;;;;5039783;28;19909;-77
2021/05/23 07:14:30;;;;;;;;;;;12.70;41.70;;;;;;5028301;28;19912;-76
2021/05/23 07:16:56;;;;;;;;;;;12.60;41.20;;;;;;5026518;28;19955;-76
2021/05/23 07:19:21;;;;;;;;;;;12.60;42.60;;;;;;5044632;28;19927;-76
2021/05/23 07:21:47;;;;;;;;;;;12.60;40.40;;;;;;5038961;28;19967;-79
2021/05/23 07:24:12;;;;;;;;;;;12.60;39.80;;;;;;5037988;28;19920;-77
2021/05/23 07:26:38;;;;;;;;;;;12.60;40.50;;;;;;5036850;28;19909;-76
2021/05/23 07:29:04;;;;;;;;;;;12.60;40.90;;;;;;5042760;28;19909;-77
2021/05/23 07:31:31;;;;;;;;;;;12.50;39.10;;;;;;5039673;28;19906;-78
2021/05/23 07:33:57;;;;;;;;;;;12.50;38.30;;;;;;5023942;28;19913;-76
2021/05/23 07:36:23;;;;;;;;;;;12.60;36.70;;;;;;5044378;28;19911;-76
2021/05/23 07:38:48;;;;;;;;;;;12.80;35.10;;;;;;5048881;28;19905;-76
2021/05/23 07:41:14;;;;;;;;;;;12.80;34.20;;;;;;5045665;28;20391;-75
2021/05/23 07:43:39;;;;;;;;;;;12.90;34.60;;;;;;5043517;28;20008;-77
2021/05/23 07:46:05;;;;;;;;;;;12.90;33.30;;;;;;5041899;28;19983;-77
2021/05/23 07:48:31;;;;;;;;;;;12.90;33.00;;;;;;5041968;28;19923;-76
2021/05/23 07:50:56;;;;;;;;;;;12.90;33.20;;;;;;5023319;28;19909;-76
2021/05/23 07:53:22;;;;;;;;;;;13.00;32.50;;;;;;5047833;28;19916;-78
2021/05/23 07:55:47;;;;;;;;;;;13.10;31.20;;;;;;5037296;28;19912;-77
2021/05/23 07:58:13;;;;;;;;;;;13.20;30.60;;;;;;5036558;28;20419;-77
2021/05/23 08:00:38;;;;;;;;;;;13.10;28.50;;;;;;5037440;28;19905;-77
2021/05/23 08:03:04;;;;;;;;;;;13.10;28.90;;;;;;5017026;28;19908;-75
2021/05/23 08:05:29;;;;;;;;;;;13.10;28.00;;;;;;5037972;28;19905;-76
2021/05/23 08:07:55;;;;;;;;;;;13.20;27.90;;;;;;5036616;28;19936;-77
2021/05/23 08:10:21;;;;;;;;;;;13.50;27.70;;;;;;5016610;28;19911;-76
2021/05/23 08:12:46;;;;;;;;;;;13.80;26.30;;;;;;5034401;28;19905;-76
2021/05/23 08:15:15;;;;;;;;;;;14.20;24.50;;;;;;5016386;28;19912;-76
2021/05/23 08:17:41;;;;;;;;;;;14.30;24.40;;;;;;5034047;28;20231;-76
2021/05/23 08:20:07;;;;;;;;;;;14.20;24.70;;;;;;5016288;28;19977;-76
2021/05/23 08:22:33;;;;;;;;;;;14.10;25.10;;;;;;5033250;28;20388;-77
2021/05/23 08:24:58;;;;;;;;;;;14.10;24.60;;;;;;5016812;28;19909;-77
2021/05/23 08:27:24;;;;;;;;;;;13.90;25.60;;;;;;5016385;28;19916;-76
2021/05/23 08:29:51;;;;;;;;;;;13.90;25.30;;;;;;5037322;28;19944;-75
2021/05/23 08:32:17;;;;;;;;;;;13.90;24.50;;;;;;5042164;28;19916;-76
2021/05/23 08:34:42;;;;;;;;;;;14.00;23.30;;;;;;5036304;28;19906;-77
2021/05/23 08:37:07;;;;;;;;;;;14.00;24.20;;;;;;5037893;28;20254;-77
2021/05/23 08:39:33;;;;;;;;;;;14.10;23.90;;;;;;5033277;28;20070;-77
2021/05/23 08:41:59;;;;;;;;;;;14.20;23.50;;;;;;5033573;28;19912;-77
2021/05/23 08:44:25;;;;;;;;;;;14.40;22.50;;;;;;5034983;28;20327;-77
2021/05/23 08:46:51;;;;;;;;;;;14.20;20.40;;;;;;5036508;28;19908;-77
2021/05/23 08:49:17;;;;;;;;;;;14.20;20.20;;;;;;5034155;28;19911;-77
2021/05/23 08:51:43;;;;;;;;;;;14.40;20.30;;;;;;5017881;28;20329;-77
2021/05/23 08:54:09;;;;;;;;;;;14.80;20.40;;;;;;5038352;28;19909;-77
2021/05/23 08:56:35;;;;;;;;;;;15.00;19.30;;;;;;5020036;28;19916;-77
2021/05/23 08:59:00;;;;;;;;;;;15.30;21.20;;;;;;5038852;28;19928;-77
2021/05/23 09:01:26;;;;;;;;;;;15.60;18.60;;;;;;5038765;28;19905;-77
2021/05/23 09:03:59;;;;;;;;;;;15.80;18.30;;;;;;5037477;28;19905;-77
2021/05/23 09:06:43;;;;;;;;;;;16.00;17.70;;;;;;5039898;28;19913;-75
2021/05/23 09:09:09;;;;;;;;;;;15.80;17.80;;;;;;5033809;28;20000;-76
2021/05/23 09:11:35;;;;;;;;;;;15.80;17.90;;;;;;5033259;28;20012;-77
2021/05/23 09:14:01;;;;;;;;;;;15.80;16.50;;;;;;5035130;28;19912;-76
2021/05/23 09:16:35;;;;;;;;;;;15.70;17.20;;;;;;5035573;28;20015;-77
2021/05/23 09:19:00;;;;;;;;;;;15.70;16.70;;;;;;5018517;28;20093;-78
2021/05/23 09:21:30;;;;;;;;;;;15.70;16.50;;;;;;5036530;28;19916;-78
2021/05/23 09:24:00;;;;;;;;;;;15.80;16.50;;;;;;5018848;28;19905;-78
2021/05/23 09:26:42;;;;;;;;;;;15.70;16.50;;;;;;5036461;28;20412;-78
2021/05/23 09:29:09;;;;;;;;;;;16.00;16.30;;;;;;5017354;28;19935;-79
2021/05/23 09:31:35;;;;;;;;;;;16.40;16.50;;;;;;5016637;28;20293;-77
2021/05/23 09:34:00;;;;;;;;;;;16.40;15.00;;;;;;5035959;28;19911;-78
2021/05/23 09:36:26;;;;;;;;;;;16.20;15.60;;;;;;5038951;28;19928;-77
2021/05/23 09:38:51;;;;;;;;;;;16.30;16.00;;;;;;5043634;28;19959;-75
2021/05/23 09:41:19;;;;;;;;;;;16.40;14.40;;;;;;5047214;28;19948;-75
2021/05/23 09:43:45;;;;;;;;;;;16.20;15.40;;;;;;5045849;28;19928;-77
2021/05/23 09:46:11;;;;;;;;;;;15.90;16.50;;;;;;5047693;28;19905;-75
2021/05/23 09:48:36;;;;;;;;;;;15.90;16.60;;;;;;5042920;28;19951;-76
2021/05/23 09:51:09;;;;;;;;;;;15.90;16.70;;;;;;5045834;28;19972;-77
2021/05/23 09:53:35;;;;;;;;;;;15.90;15.80;;;;;;5047278;28;19909;-76
2021/05/23 09:56:03;;;;;;;;;;;16.00;15.80;;;;;;5045683;28;20004;-76
2021/05/23 09:58:30;;;;;;;;;;;16.20;16.20;;;;;;5046177;28;19992;-77
2021/05/23 10:00:56;;;;;;;;;;;16.20;16.50;;;;;;5047649;28;19912;-75
2021/05/23 10:03:23;;;;;;;;;;;16.30;16.00;;;;;;5029217;28;19955;-76
2021/05/23 10:05:49;;;;;;;;;;;16.10;15.70;;;;;;5047474;28;19937;-77
2021/05/23 10:08:15;;;;;;;;;;;15.60;16.60;;;;;;5048065;28;19920;-75
2021/05/23 10:10:40;;;;;;;;;;;15.10;17.00;;;;;;5050149;28;19905;-76
2021/05/23 10:13:06;;;;;;;;;;;14.90;17.80;;;;;;5032683;28;19932;-76
2021/05/23 10:15:31;;;;;;;;;;;14.90;17.40;;;;;;5050610;28;19905;-78
2021/05/23 10:17:57;;;;;;;;;;;15.10;17.30;;;;;;5027330;28;20003;-76
2021/05/23 10:20:25;;;;;;;;;;;15.30;17.20;;;;;;5041852;28;19928;-77
2021/05/23 10:22:50;;;;;;;;;;;15.60;16.70;;;;;;5023203;28;19968;-77
2021/05/23 10:25:16;;;;;;;;;;;15.70;16.90;;;;;;5043510;28;19908;-74
2021/05/23 10:27:43;;;;;;;;;;;15.70;17.20;;;;;;5044462;28;20279;-78
2021/05/23 10:30:09;;;;;;;;;;;15.60;17.50;;;;;;5022390;28;20274;-77
2021/05/23 10:32:36;;;;;;;;;;;15.50;17.30;;;;;;5018112;28;19909;-77
2021/05/23 10:35:15;;;;;;;;;;;15.40;17.30;;;;;;5038234;28;19905;-77
2021/05/23 10:37:42;;;;;;;;;;;15.20;17.00;;;;;;5036987;28;19980;-78
2021/05/23 10:40:28;;;;;;;;;;;15.00;17.10;;;;;;5019217;28;20310;-77
2021/05/23 10:42:54;;;;;;;;;;;15.10;16.90;;;;;;5035949;28;19905;-77
2021/05/23 10:45:21;;;;;;;;;;;15.00;16.60;;;;;;5036121;28;19999;-78
2021/05/23 10:47:46;;;;;;;;;;;15.00;17.40;;;;;;5020909;28;20290;-78
2021/05/23 10:50:12;;;;;;;;;;;15.20;17.10;;;;;;5025536;28;19940;-77
2021/05/23 10:52:40;;;;;;;;;;;15.20;16.80;;;;;;5025977;28;19928;-75
2021/05/23 10:55:13;;;;;;;;;;;15.30;17.10;;;;;;5043119;28;19994;-77
2021/05/23 10:57:45;;;;;;;;;;;15.30;16.80;;;;;;5037491;28;19928;-78
2021/05/23 11:00:21;;;;;;;;;;;15.40;17.20;;;;;;5039146;28;19996;-77
2021/05/23 11:02:47;;;;;;;;;;;15.40;16.30;;;;;;5035749;28;19912;-76
2021/05/23 11:05:16;;;;;;;;;;;15.50;15.70;;;;;;5038007;28;19929;-77
2021/05/23 11:07:52;;;;;;;;;;;15.40;15.70;;;;;;5021253;28;19946;-76
2021/05/23 11:10:22;;;;;;;;;;;15.30;15.50;;;;;;5038162;28;19905;-76
2021/05/23 11:12:55;;;;;;;;;;;15.40;15.50;;;;;;5037095;28;20333;-76
2021/05/23 11:15:21;;;;;;;;;;;15.90;14.60;;;;;;5038812;28;20274;-77
2021/05/23 11:17:53;;;;;;;;;;;16.50;14.40;;;;;;5021305;28;20412;-78
2021/05/23 11:20:24;;;;;;;;;;;17.20;10.40;;;;;;5018485;28;19908;-78
2021/05/23 11:22:56;;;;;;;;;;;17.60;11.10;;;;;;5037783;28;19909;-80
2021/05/23 11:25:22;;;;;;;;;;;17.90;10.70;;;;;;5037181;28;19912;-76
2021/05/23 11:27:54;;;;;;;;;;;17.70;8.80;;;;;;5038290;28;20003;-77
2021/05/23 11:30:20;;;;;;;;;;;17.40;8.40;;;;;;5041488;28;20358;-78
2021/05/23 11:32:45;;;;;;;;;;;16.90;9.00;;;;;;5047429;28;19928;-77
2021/05/23 11:35:21;;;;;;;;;;;16.30;9.90;;;;;;5039734;28;19933;-77
2021/05/23 11:37:51;;;;;;;;;;;16.30;10.60;;;;;;5036712;28;19912;-77
2021/05/23 11:40:17;;;;;;;;;;;16.80;10.10;;;;;;5036621;28;20377;-78
2021/05/23 11:42:42;;;;;;;;;;;17.50;8.90;;;;;;5020338;28;20039;-76
2021/05/23 11:45:17;;;;;;;;;;;17.90;7.70;;;;;;5037707;28;19917;-78
2021/05/23 11:47:44;;;;;;;;;;;17.80;7.50;;;;;;5037194;28;19909;-77
2021/05/23 11:50:19;;;;;;;;;;;17.60;7.90;;;;;;5038447;28;19912;-78
2021/05/23 11:52:45;;;;;;;;;;;17.70;6.90;;;;;;5038558;28;19905;-77
2021/05/23 11:55:10;;;;;;;;;;;17.70;6.70;;;;;;5038905;28;19931;-76
2021/05/23 11:57:36;;;;;;;;;;;17.70;6.70;;;;;;5043993;28;19912;-80
2021/05/23 12:00:02;;;;;;;;;;;17.90;8.10;;;;;;5027498;28;19960;-77
2021/05/23 12:02:28;;;;;;;;;;;18.40;7.10;;;;;;5036307;28;20046;-76
2021/05/23 12:05:00;;;;;;;;;;;18.60;7.40;;;;;;5036655;28;20480;-75
2021/05/23 12:07:34;;;;;;;;;;;18.80;7.60;;;;;;5018194;28;19963;-76
2021/05/23 12:10:00;;;;;;;;;;;18.60;8.00;;;;;;5035916;28;20389;-78
2021/05/23 12:12:26;;;;;;;;;;;18.30;7.80;;;;;;5037086;28;19976;-76
2021/05/23 12:14:51;;;;;;;;;;;17.70;8.40;;;;;;5035361;28;19916;-78
2021/05/23 12:17:18;;;;;;;;;;;17.20;9.50;;;;;;5020689;28;19912;-77
2021/05/23 12:22:17;;;;;;;;;;;16.90;10.10;;;;;;5040655;28;19912;-78
2021/05/23 12:24:43;;;;;;;;;;;17.00;10.00;;;;;;5038083;28;19905;-76
2021/05/23 12:27:08;;;;;;;;;;;17.20;9.60;;;;;;5037294;28;19963;-78
2021/05/23 12:29:34;;;;;;;;;;;17.70;9.40;;;;;;5036176;28;19940;-78
2021/05/23 12:32:03;;;;;;;;;;;18.00;7.80;;;;;;5037528;28;19905;-76
2021/05/23 12:34:29;;;;;;;;;;;18.30;7.20;;;;;;5036618;28;19905;-77
2021/05/23 12:36:58;;;;;;;;;;;18.70;6.30;;;;;;5018341;28;19909;-77
2021/05/23 12:39:24;;;;;;;;;;;18.90;5.10;;;;;;5019249;28;19905;-77
2021/05/23 12:41:51;;;;;;;;;;;19.00;5.10;;;;;;5039843;28;19905;-78
2021/05/23 12:44:17;;;;;;;;;;;19.10;5.20;;;;;;5016895;28;20281;-75
2021/05/23 12:46:42;;;;;;;;;;;19.10;5.80;;;;;;5035615;28;19909;-78
2021/05/23 12:49:24;;;;;;;;;;;19.20;6.60;;;;;;5033771;28;20289;-75
2021/05/23 12:51:50;;;;;;;;;;;19.20;5.80;;;;;;5034168;28;19940;-74
2021/05/23 12:54:29;;;;;;;;;;;18.90;6.40;;;;;;5021808;28;19950;-74
2021/05/23 12:56:56;;;;;;;;;;;18.70;5.90;;;;;;5037470;28;19905;-74
2021/05/23 12:59:22;;;;;;;;;;;18.40;7.80;;;;;;5035572;28;19952;-74
2021/05/23 13:01:48;;;;;;;;;;;18.60;7.70;;;;;;5034064;28;19905;-76
2021/05/23 13:04:18;;;;;;;;;;;18.90;7.00;;;;;;5034153;28;19970;-74
2021/05/23 13:06:56;;;;;;;;;;;19.10;7.30;;;;;;5017763;28;19963;-74
2021/05/23 13:09:31;;;;;;;;;;;19.50;7.80;;;;;;5020117;28;19995;-75
2021/05/23 13:11:57;;;;;;;;;;;20.00;5.50;;;;;;5021818;28;20163;-76
2021/05/23 13:14:23;;;;;;;;;;;20.00;5.70;;;;;;5038753;28;19905;-77
2021/05/23 13:16:51;;;;;;;;;;;19.60;5.70;;;;;;5036646;28;19941;-76
2021/05/23 13:19:17;;;;;;;;;;;19.60;5.60;;;;;;5018874;28;20337;-75
2021/05/23 13:21:43;;;;;;;;;;;19.80;5.70;;;;;;5018778;28;19955;-75
2021/05/23 13:24:09;;;;;;;;;;;20.30;5.60;;;;;;5036060;28;19905;-74
2021/05/23 13:26:44;;;;;;;;;;;20.70;5.50;;;;;;5018141;28;20218;-76
2021/05/23 13:29:10;;;;;;;;;;;21.60;4.90;;;;;;5035736;28;19912;-74
2021/05/23 13:31:35;;;;;;;;;;;22.30;1.90;;;;;;5035792;28;19905;-76
2021/05/23 13:34:00;;;;;;;;;;;22.80;2.40;;;;;;5035468;28;20350;-75
2021/05/23 13:36:26;;;;;;;;;;;23.20;2.20;;;;;;5018167;28;19916;-74
2021/05/23 13:38:51;;;;;;;;;;;23.30;1.80;;;;;;5035604;28;19940;-76
2021/05/23 13:41:17;;;;;;;;;;;22.90;1.40;;;;;;5035463;28;19913;-76
2021/05/23 13:43:42;;;;;;;;;;;22.10;2.40;;;;;;5017407;28;20015;-74
2021/05/23 13:46:08;;;;;;;;;;;21.60;2.30;;;;;;5038346;28;19931;-75
2021/05/23 13:48:35;;;;;;;;;;;21.30;4.00;;;;;;5036923;28;19905;-75
2021/05/23 13:51:01;;;;;;;;;;;21.50;3.80;;;;;;5039877;28;19947;-74
2021/05/23 13:53:26;;;;;;;;;;;21.30;3.80;;;;;;5022776;28;20372;-75
2021/05/23 13:55:52;;;;;;;;;;;21.30;2.50;;;;;;5039231;28;19905;-74
2021/05/23 13:58:18;;;;;;;;;;;20.80;3.40;;;;;;5036207;28;20298;-75
2021/05/23 14:00:44;;;;;;;;;;;19.90;4.10;;;;;;5036100;28;20369;-77
2021/05/23 14:03:20;;;;;;;;;;;20.50;3.80;;;;;;5035041;28;19908;-77
2021/05/23 14:05:50;;;;;;;;;;;20.80;3.20;;;;;;5035810;28;20003;-77
2021/05/23 14:08:16;;;;;;;;;;;21.20;3.20;;;;;;5035455;28;20001;-73
2021/05/23 14:10:41;;;;;;;;;;;21.40;3.70;;;;;;5035231;28;20366;-75
2021/05/23 14:13:07;;;;;;;;;;;21.30;3.20;;;;;;5034817;28;19909;-75
2021/05/23 14:15:33;;;;;;;;;;;21.10;2.80;;;;;;5035329;28;19905;-74
2021/05/23 14:17:59;;;;;;;;;;;20.90;3.20;;;;;;5035020;28;19909;-74
2021/05/23 14:20:26;;;;;;;;;;;21.50;3.10;;;;;;5034406;28;19905;-75